sensor_id;sensor_type;location;lat;lon;timestamp;P1;durP1;ratioP1;P2;durP2;ratioP2
75340;SDS011;64931;47.562;18.920;2023-04-06T00:01:19;10.20;;;4.80;;
75340;SDS011;64931;47.562;18.920;2023-04-06T00:03:45;10.20;;;5.50;;
75340;SDS011;64931;47.562;18.920;2023-04-06T00:06:10;11.50;;;5.80;;
75340;SDS011;64931;47.562;18.920;2023-04-06T00:08:36;13.70;;;6.20;;
75340;SDS011;64931;47.562;18.920;2023-04-06T00:11:01;12.40;;;5.70;;
75340;SDS011;64931;47.562;18.920;2023-04-06T00:13:26;10.10;;;5.30;;
75340;SDS011;64931;47.562;18.920;2023-04-06T00:15:52;11.30;;;5.80;;
75340;SDS011;64931;47.562;18.920;2023-04-06T00:18:17;11.80;;;6.40;;
75340;SDS011;64931;47.562;18.920;2023-04-06T00:20:44;11.30;;;5.80;;
75340;SDS011;64931;47.562;18.920;2023-04-06T00:23:10;11.20;;;5.70;;
75340;SDS011;64931;47.562;18.920;2023-04-06T00:25:35;15.40;;;6.90;;
75340;SDS011;64931;47.562;18.920;2023-04-06T00:28:01;14.10;;;6.80;;
75340;SDS011;64931;47.562;18.920;2023-04-06T00:30:26;11.00;;;6.00;;
75340;SDS011;64931;47.562;18.920;2023-04-06T00:32:52;12.40;;;5.60;;
75340;SDS011;64931;47.562;18.920;2023-04-06T00:35:17;10.40;;;5.20;;
75340;SDS011;64931;47.562;18.920;2023-04-06T00:37:43;11.90;;;4.90;;
75340;SDS011;64931;47.562;18.920;2023-04-06T00:40:08;10.00;;;4.90;;
75340;SDS011;64931;47.562;18.920;2023-04-06T00:42:34;11.30;;;6.10;;
75340;SDS011;64931;47.562;18.920;2023-04-06T00:45:01;12.20;;;5.40;;
75340;SDS011;64931;47.562;18.920;2023-04-06T00:47:26;10.00;;;4.90;;
75340;SDS011;64931;47.562;18.920;2023-04-06T00:49:52;12.20;;;5.60;;
75340;SDS011;64931;47.562;18.920;2023-04-06T00:52:19;10.70;;;5.80;;
75340;SDS011;64931;47.562;18.920;2023-04-06T00:54:45;13.20;;;6.50;;
75340;SDS011;64931;47.562;18.920;2023-04-06T00:57:11;11.90;;;6.20;;
75340;SDS011;64931;47.562;18.920;2023-04-06T00:59:37;13.00;;;6.20;;
75340;SDS011;64931;47.562;18.920;2023-04-06T01:02:02;12.10;;;5.80;;
75340;SDS011;64931;47.562;18.920;2023-04-06T01:04:28;10.40;;;5.50;;
75340;SDS011;64931;47.562;18.920;2023-04-06T01:06:53;11.20;;;5.90;;
75340;SDS011;64931;47.562;18.920;2023-04-06T01:09:19;11.30;;;5.90;;
75340;SDS011;64931;47.562;18.920;2023-04-06T01:11:45;11.00;;;5.30;;
75340;SDS011;64931;47.562;18.920;2023-04-06T01:14:10;10.20;;;5.40;;
75340;SDS011;64931;47.562;18.920;2023-04-06T01:16:36;9.10;;;4.80;;
75340;SDS011;64931;47.562;18.920;2023-04-06T01:19:06;11.60;;;5.90;;
75340;SDS011;64931;47.562;18.920;2023-04-06T01:21:33;14.40;;;6.20;;
75340;SDS011;64931;47.562;18.920;2023-04-06T01:23:59;10.50;;;5.40;;
75340;SDS011;64931;47.562;18.920;2023-04-06T01:26:24;14.50;;;6.60;;
75340;SDS011;64931;47.562;18.920;2023-04-06T01:28:51;11.50;;;5.40;;
75340;SDS011;64931;47.562;18.920;2023-04-06T01:31:17;13.20;;;6.30;;
75340;SDS011;64931;47.562;18.920;2023-04-06T01:33:42;11.20;;;4.90;;
75340;SDS011;64931;47.562;18.920;2023-04-06T01:36:08;10.10;;;5.70;;
75340;SDS011;64931;47.562;18.920;2023-04-06T01:38:33;11.80;;;5.10;;
75340;SDS011;64931;47.562;18.920;2023-04-06T01:40:59;12.00;;;5.70;;
75340;SDS011;64931;47.562;18.920;2023-04-06T01:43:25;13.60;;;5.80;;
75340;SDS011;64931;47.562;18.920;2023-04-06T01:45:51;9.50;;;5.10;;
75340;SDS011;64931;47.562;18.920;2023-04-06T01:48:16;10.70;;;5.90;;
75340;SDS011;64931;47.562;18.920;2023-04-06T01:50:41;11.70;;;6.00;;
75340;SDS011;64931;47.562;18.920;2023-04-06T01:53:07;13.50;;;6.80;;
75340;SDS011;64931;47.562;18.920;2023-04-06T01:55:32;14.40;;;7.10;;
75340;SDS011;64931;47.562;18.920;2023-04-06T01:57:58;13.50;;;6.90;;
75340;SDS011;64931;47.562;18.920;2023-04-06T02:00:23;13.40;;;6.80;;
75340;SDS011;64931;47.562;18.920;2023-04-06T02:02:49;12.00;;;6.00;;
75340;SDS011;64931;47.562;18.920;2023-04-06T02:05:14;15.60;;;7.40;;
75340;SDS011;64931;47.562;18.920;2023-04-06T02:07:40;12.40;;;6.30;;
75340;SDS011;64931;47.562;18.920;2023-04-06T02:10:10;12.90;;;6.80;;
75340;SDS011;64931;47.562;18.920;2023-04-06T02:12:37;16.30;;;7.40;;
75340;SDS011;64931;47.562;18.920;2023-04-06T02:15:02;13.60;;;6.90;;
75340;SDS011;64931;47.562;18.920;2023-04-06T02:17:28;13.00;;;7.10;;
75340;SDS011;64931;47.562;18.920;2023-04-06T02:19:53;13.90;;;6.90;;
75340;SDS011;64931;47.562;18.920;2023-04-06T02:22:19;15.10;;;7.60;;
75340;SDS011;64931;47.562;18.920;2023-04-06T02:24:44;12.50;;;6.90;;
75340;SDS011;64931;47.562;18.920;2023-04-06T02:27:11;12.40;;;6.80;;
75340;SDS011;64931;47.562;18.920;2023-04-06T02:29:37;14.50;;;7.90;;
75340;SDS011;64931;47.562;18.920;2023-04-06T02:32:02;12.90;;;6.60;;
75340;SDS011;64931;47.562;18.920;2023-04-06T02:34:28;13.40;;;7.10;;
75340;SDS011;64931;47.562;18.920;2023-04-06T02:36:54;10.80;;;5.90;;
75340;SDS011;64931;47.562;18.920;2023-04-06T02:39:20;13.80;;;7.50;;
75340;SDS011;64931;47.562;18.920;2023-04-06T02:41:45;13.00;;;7.40;;
75340;SDS011;64931;47.562;18.920;2023-04-06T02:44:11;14.30;;;7.10;;
75340;SDS011;64931;47.562;18.920;2023-04-06T02:46:36;16.00;;;7.70;;
75340;SDS011;64931;47.562;18.920;2023-04-06T02:49:02;14.00;;;7.50;;
75340;SDS011;64931;47.562;18.920;2023-04-06T02:51:27;13.70;;;7.00;;
75340;SDS011;64931;47.562;18.920;2023-04-06T02:53:53;13.20;;;6.60;;
75340;SDS011;64931;47.562;18.920;2023-04-06T02:56:18;14.40;;;6.70;;
75340;SDS011;64931;47.562;18.920;2023-04-06T02:58:46;13.90;;;7.20;;
75340;SDS011;64931;47.562;18.920;2023-04-06T03:01:11;13.40;;;7.30;;
75340;SDS011;64931;47.562;18.920;2023-04-06T03:03:37;12.30;;;6.10;;
75340;SDS011;64931;47.562;18.920;2023-04-06T03:06:02;14.80;;;7.00;;
75340;SDS011;64931;47.562;18.920;2023-04-06T03:08:28;10.80;;;5.90;;
75340;SDS011;64931;47.562;18.920;2023-04-06T03:10:53;12.40;;;7.20;;
75340;SDS011;64931;47.562;18.920;2023-04-06T03:13:20;13.30;;;6.30;;
75340;SDS011;64931;47.562;18.920;2023-04-06T03:15:45;12.90;;;6.60;;
75340;SDS011;64931;47.562;18.920;2023-04-06T03:18:11;13.00;;;6.80;;
75340;SDS011;64931;47.562;18.920;2023-04-06T03:20:36;15.10;;;6.80;;
75340;SDS011;64931;47.562;18.920;2023-04-06T03:23:02;12.30;;;7.00;;
75340;SDS011;64931;47.562;18.920;2023-04-06T03:25:27;11.50;;;5.70;;
75340;SDS011;64931;47.562;18.920;2023-04-06T03:27:52;10.70;;;5.60;;
75340;SDS011;64931;47.562;18.920;2023-04-06T03:30:18;12.20;;;6.60;;
75340;SDS011;64931;47.562;18.920;2023-04-06T03:32:44;13.40;;;7.00;;
75340;SDS011;64931;47.562;18.920;2023-04-06T03:35:09;12.00;;;5.80;;
75340;SDS011;64931;47.562;18.920;2023-04-06T03:37:35;13.70;;;6.30;;
75340;SDS011;64931;47.562;18.920;2023-04-06T03:40:01;13.10;;;6.40;;
75340;SDS011;64931;47.562;18.920;2023-04-06T03:42:26;15.90;;;6.90;;
75340;SDS011;64931;47.562;18.920;2023-04-06T03:44:52;14.50;;;7.20;;
75340;SDS011;64931;47.562;18.920;2023-04-06T03:47:17;12.90;;;6.80;;
75340;SDS011;64931;47.562;18.920;2023-04-06T03:49:43;14.60;;;7.70;;
75340;SDS011;64931;47.562;18.920;2023-04-06T03:52:08;12.60;;;6.10;;
75340;SDS011;64931;47.562;18.920;2023-04-06T03:54:34;15.80;;;7.00;;
75340;SDS011;64931;47.562;18.920;2023-04-06T03:56:59;12.20;;;6.20;;
75340;SDS011;64931;47.562;18.920;2023-04-06T03:59:25;12.00;;;6.10;;
75340;SDS011;64931;47.562;18.920;2023-04-06T04:01:51;11.10;;;6.10;;
75340;SDS011;64931;47.562;18.920;2023-04-06T04:04:16;13.50;;;6.10;;
75340;SDS011;64931;47.562;18.920;2023-04-06T04:06:41;13.20;;;6.00;;
75340;SDS011;64931;47.562;18.920;2023-04-06T04:09:07;11.60;;;5.80;;
75340;SDS011;64931;47.562;18.920;2023-04-06T04:11:32;12.10;;;6.00;;
75340;SDS011;64931;47.562;18.920;2023-04-06T04:13:58;16.00;;;8.20;;
75340;SDS011;64931;47.562;18.920;2023-04-06T04:16:23;13.70;;;6.80;;
75340;SDS011;64931;47.562;18.920;2023-04-06T04:18:48;16.10;;;7.30;;
75340;SDS011;64931;47.562;18.920;2023-04-06T04:21:14;13.60;;;6.50;;
75340;SDS011;64931;47.562;18.920;2023-04-06T04:23:40;15.90;;;7.90;;
75340;SDS011;64931;47.562;18.920;2023-04-06T04:26:05;13.80;;;6.80;;
75340;SDS011;64931;47.562;18.920;2023-04-06T04:28:31;17.00;;;7.80;;
75340;SDS011;64931;47.562;18.920;2023-04-06T04:30:56;15.60;;;8.50;;
75340;SDS011;64931;47.562;18.920;2023-04-06T04:33:22;19.30;;;8.90;;
75340;SDS011;64931;47.562;18.920;2023-04-06T04:35:47;13.70;;;7.20;;
75340;SDS011;64931;47.562;18.920;2023-04-06T04:38:13;16.40;;;8.10;;
75340;SDS011;64931;47.562;18.920;2023-04-06T04:40:38;15.60;;;7.80;;
75340;SDS011;64931;47.562;18.920;2023-04-06T04:43:04;16.50;;;8.10;;
75340;SDS011;64931;47.562;18.920;2023-04-06T04:45:30;17.50;;;8.80;;
75340;SDS011;64931;47.562;18.920;2023-04-06T04:47:55;21.90;;;9.40;;
75340;SDS011;64931;47.562;18.920;2023-04-06T04:50:21;14.10;;;7.20;;
75340;SDS011;64931;47.562;18.920;2023-04-06T04:52:46;15.30;;;7.30;;
75340;SDS011;64931;47.562;18.920;2023-04-06T04:55:13;17.60;;;10.10;;
75340;SDS011;64931;47.562;18.920;2023-04-06T04:57:38;19.80;;;8.80;;
75340;SDS011;64931;47.562;18.920;2023-04-06T05:00:04;16.60;;;8.50;;
75340;SDS011;64931;47.562;18.920;2023-04-06T05:02:30;18.30;;;8.70;;
75340;SDS011;64931;47.562;18.920;2023-04-06T05:04:56;19.20;;;10.20;;
75340;SDS011;64931;47.562;18.920;2023-04-06T05:07:21;18.20;;;10.40;;
75340;SDS011;64931;47.562;18.920;2023-04-06T05:09:47;20.60;;;9.70;;
75340;SDS011;64931;47.562;18.920;2023-04-06T05:12:13;16.80;;;9.70;;
75340;SDS011;64931;47.562;18.920;2023-04-06T05:14:38;20.30;;;10.80;;
75340;SDS011;64931;47.562;18.920;2023-04-06T05:17:04;18.50;;;10.70;;
75340;SDS011;64931;47.562;18.920;2023-04-06T05:19:30;16.80;;;9.70;;
75340;SDS011;64931;47.562;18.920;2023-04-06T05:21:55;20.80;;;9.60;;
75340;SDS011;64931;47.562;18.920;2023-04-06T05:24:21;16.80;;;9.60;;
75340;SDS011;64931;47.562;18.920;2023-04-06T05:26:47;16.10;;;8.80;;
75340;SDS011;64931;47.562;18.920;2023-04-06T05:29:13;19.20;;;10.60;;
75340;SDS011;64931;47.562;18.920;2023-04-06T05:31:39;16.00;;;9.60;;
75340;SDS011;64931;47.562;18.920;2023-04-06T05:34:05;19.30;;;9.30;;
75340;SDS011;64931;47.562;18.920;2023-04-06T05:36:30;19.70;;;10.90;;
75340;SDS011;64931;47.562;18.920;2023-04-06T05:38:57;16.40;;;9.30;;
75340;SDS011;64931;47.562;18.920;2023-04-06T05:41:23;20.90;;;10.80;;
75340;SDS011;64931;47.562;18.920;2023-04-06T05:43:49;20.30;;;11.40;;
75340;SDS011;64931;47.562;18.920;2023-04-06T05:46:15;23.00;;;11.40;;
75340;SDS011;64931;47.562;18.920;2023-04-06T05:48:40;18.50;;;9.30;;
75340;SDS011;64931;47.562;18.920;2023-04-06T05:51:06;15.00;;;9.50;;
75340;SDS011;64931;47.562;18.920;2023-04-06T05:53:31;22.30;;;11.70;;
75340;SDS011;64931;47.562;18.920;2023-04-06T05:56:00;15.50;;;9.10;;
75340;SDS011;64931;47.562;18.920;2023-04-06T05:58:26;22.40;;;10.00;;
75340;SDS011;64931;47.562;18.920;2023-04-06T06:01:01;15.70;;;9.20;;
75340;SDS011;64931;47.562;18.920;2023-04-06T06:03:28;18.90;;;9.60;;
75340;SDS011;64931;47.562;18.920;2023-04-06T06:05:58;14.40;;;7.50;;
75340;SDS011;64931;47.562;18.920;2023-04-06T06:08:25;17.60;;;9.40;;
75340;SDS011;64931;47.562;18.920;2023-04-06T06:10:50;16.50;;;9.00;;
75340;SDS011;64931;47.562;18.920;2023-04-06T06:13:16;16.70;;;9.80;;
75340;SDS011;64931;47.562;18.920;2023-04-06T06:15:41;16.30;;;10.00;;
75340;SDS011;64931;47.562;18.920;2023-04-06T06:18:07;18.00;;;9.10;;
75340;SDS011;64931;47.562;18.920;2023-04-06T06:20:32;15.80;;;7.80;;
75340;SDS011;64931;47.562;18.920;2023-04-06T06:22:58;16.90;;;9.60;;
75340;SDS011;64931;47.562;18.920;2023-04-06T06:25:23;18.60;;;9.90;;
75340;SDS011;64931;47.562;18.920;2023-04-06T06:27:49;17.50;;;8.70;;
75340;SDS011;64931;47.562;18.920;2023-04-06T06:30:14;16.70;;;10.50;;
75340;SDS011;64931;47.562;18.920;2023-04-06T06:32:40;17.30;;;8.50;;
75340;SDS011;64931;47.562;18.920;2023-04-06T06:35:06;15.80;;;8.60;;
75340;SDS011;64931;47.562;18.920;2023-04-06T06:37:31;16.30;;;8.90;;
75340;SDS011;64931;47.562;18.920;2023-04-06T06:39:57;19.20;;;9.80;;
75340;SDS011;64931;47.562;18.920;2023-04-06T06:42:22;15.70;;;9.90;;
75340;SDS011;64931;47.562;18.920;2023-04-06T06:44:48;14.60;;;7.50;;
75340;SDS011;64931;47.562;18.920;2023-04-06T06:47:13;15.30;;;7.90;;
75340;SDS011;64931;47.562;18.920;2023-04-06T06:49:38;18.60;;;9.30;;
75340;SDS011;64931;47.562;18.920;2023-04-06T06:52:04;18.80;;;9.70;;
75340;SDS011;64931;47.562;18.920;2023-04-06T06:56:58;17.30;;;9.50;;
75340;SDS011;64931;47.562;18.920;2023-04-06T06:59:24;18.10;;;9.30;;
75340;SDS011;64931;47.562;18.920;2023-04-06T07:01:50;20.20;;;9.50;;
75340;SDS011;64931;47.562;18.920;2023-04-06T07:04:15;19.60;;;9.10;;
75340;SDS011;64931;47.562;18.920;2023-04-06T07:06:40;16.40;;;8.90;;
75340;SDS011;64931;47.562;18.920;2023-04-06T07:09:06;17.20;;;9.50;;
75340;SDS011;64931;47.562;18.920;2023-04-06T07:11:31;14.40;;;7.60;;
75340;SDS011;64931;47.562;18.920;2023-04-06T07:13:57;17.90;;;9.90;;
75340;SDS011;64931;47.562;18.920;2023-04-06T07:16:22;17.20;;;9.40;;
75340;SDS011;64931;47.562;18.920;2023-04-06T07:18:48;17.30;;;11.20;;
75340;SDS011;64931;47.562;18.920;2023-04-06T07:21:13;15.10;;;8.40;;
75340;SDS011;64931;47.562;18.920;2023-04-06T07:23:39;19.40;;;9.70;;
75340;SDS011;64931;47.562;18.920;2023-04-06T07:26:05;16.40;;;9.70;;
75340;SDS011;64931;47.562;18.920;2023-04-06T07:28:30;15.80;;;9.70;;
75340;SDS011;64931;47.562;18.920;2023-04-06T07:30:56;18.40;;;9.00;;
75340;SDS011;64931;47.562;18.920;2023-04-06T07:33:21;17.20;;;10.20;;
75340;SDS011;64931;47.562;18.920;2023-04-06T07:35:47;17.50;;;9.80;;
75340;SDS011;64931;47.562;18.920;2023-04-06T07:38:13;17.20;;;9.90;;
75340;SDS011;64931;47.562;18.920;2023-04-06T07:40:38;15.80;;;8.80;;
75340;SDS011;64931;47.562;18.920;2023-04-06T07:43:03;16.30;;;10.10;;
75340;SDS011;64931;47.562;18.920;2023-04-06T07:45:29;17.20;;;11.20;;
75340;SDS011;64931;47.562;18.920;2023-04-06T07:47:54;17.20;;;9.20;;
75340;SDS011;64931;47.562;18.920;2023-04-06T07:50:20;23.10;;;10.60;;
75340;SDS011;64931;47.562;18.920;2023-04-06T07:52:46;19.40;;;9.20;;
75340;SDS011;64931;47.562;18.920;2023-04-06T07:55:11;16.00;;;8.10;;
75340;SDS011;64931;47.562;18.920;2023-04-06T07:57:37;16.10;;;10.10;;
75340;SDS011;64931;47.562;18.920;2023-04-06T08:00:02;17.30;;;10.30;;
75340;SDS011;64931;47.562;18.920;2023-04-06T08:02:29;18.70;;;10.90;;
75340;SDS011;64931;47.562;18.920;2023-04-06T08:04:56;16.30;;;11.00;;
75340;SDS011;64931;47.562;18.920;2023-04-06T08:07:21;17.50;;;11.20;;
75340;SDS011;64931;47.562;18.920;2023-04-06T08:09:47;20.80;;;11.30;;
75340;SDS011;64931;47.562;18.920;2023-04-06T08:12:13;15.60;;;9.50;;
75340;SDS011;64931;47.562;18.920;2023-04-06T08:14:39;15.80;;;9.50;;
75340;SDS011;64931;47.562;18.920;2023-04-06T08:17:05;13.30;;;8.10;;
75340;SDS011;64931;47.562;18.920;2023-04-06T08:19:30;20.70;;;10.60;;
75340;SDS011;64931;47.562;18.920;2023-04-06T08:21:56;15.90;;;10.20;;
75340;SDS011;64931;47.562;18.920;2023-04-06T08:24:24;16.60;;;8.90;;
75340;SDS011;64931;47.562;18.920;2023-04-06T08:26:50;15.70;;;9.60;;
75340;SDS011;64931;47.562;18.920;2023-04-06T08:29:16;17.10;;;9.70;;
75340;SDS011;64931;47.562;18.920;2023-04-06T08:31:41;17.10;;;10.40;;
75340;SDS011;64931;47.562;18.920;2023-04-06T08:34:07;16.40;;;11.00;;
75340;SDS011;64931;47.562;18.920;2023-04-06T08:36:32;16.00;;;8.70;;
75340;SDS011;64931;47.562;18.920;2023-04-06T08:38:58;17.00;;;9.30;;
75340;SDS011;64931;47.562;18.920;2023-04-06T08:41:25;13.80;;;8.40;;
75340;SDS011;64931;47.562;18.920;2023-04-06T08:43:54;14.10;;;10.10;;
75340;SDS011;64931;47.562;18.920;2023-04-06T08:46:23;13.60;;;8.70;;
75340;SDS011;64931;47.562;18.920;2023-04-06T08:48:56;13.70;;;8.90;;
75340;SDS011;64931;47.562;18.920;2023-04-06T08:51:22;13.80;;;8.10;;
75340;SDS011;64931;47.562;18.920;2023-04-06T08:53:52;15.50;;;8.10;;
75340;SDS011;64931;47.562;18.920;2023-04-06T08:56:21;14.80;;;9.00;;
75340;SDS011;64931;47.562;18.920;2023-04-06T08:58:48;16.00;;;9.70;;
75340;SDS011;64931;47.562;18.920;2023-04-06T09:01:14;12.40;;;7.70;;
75340;SDS011;64931;47.562;18.920;2023-04-06T09:03:42;12.10;;;7.80;;
75340;SDS011;64931;47.562;18.920;2023-04-06T09:06:08;13.30;;;8.00;;
75340;SDS011;64931;47.562;18.920;2023-04-06T09:08:35;15.50;;;8.10;;
75340;SDS011;64931;47.562;18.920;2023-04-06T09:11:03;14.40;;;7.70;;
75340;SDS011;64931;47.562;18.920;2023-04-06T09:13:29;12.40;;;8.00;;
75340;SDS011;64931;47.562;18.920;2023-04-06T09:16:04;13.00;;;7.10;;
75340;SDS011;64931;47.562;18.920;2023-04-06T09:18:33;12.80;;;6.90;;
75340;SDS011;64931;47.562;18.920;2023-04-06T09:23:33;12.90;;;7.40;;
75340;SDS011;64931;47.562;18.920;2023-04-06T09:26:12;12.20;;;7.00;;
75340;SDS011;64931;47.562;18.920;2023-04-06T09:31:07;13.70;;;6.80;;
75340;SDS011;64931;47.562;18.920;2023-04-06T09:33:37;13.00;;;6.70;;
75340;SDS011;64931;47.562;18.920;2023-04-06T09:36:04;12.20;;;6.80;;
75340;SDS011;64931;47.562;18.920;2023-04-06T09:38:29;11.80;;;7.50;;
75340;SDS011;64931;47.562;18.920;2023-04-06T09:40:55;12.90;;;7.00;;
75340;SDS011;64931;47.562;18.920;2023-04-06T09:43:27;14.20;;;6.90;;
75340;SDS011;64931;47.562;18.920;2023-04-06T09:45:53;13.90;;;6.60;;
75340;SDS011;64931;47.562;18.920;2023-04-06T09:48:19;12.30;;;7.50;;
75340;SDS011;64931;47.562;18.920;2023-04-06T09:50:47;11.20;;;6.90;;
75340;SDS011;64931;47.562;18.920;2023-04-06T09:53:14;12.60;;;7.10;;
75340;SDS011;64931;47.562;18.920;2023-04-06T09:58:17;11.40;;;6.30;;
75340;SDS011;64931;47.562;18.920;2023-04-06T10:00:46;14.20;;;6.90;;
75340;SDS011;64931;47.562;18.920;2023-04-06T10:03:35;8.80;;;5.20;;
75340;SDS011;64931;47.562;18.920;2023-04-06T10:06:09;11.70;;;6.10;;
75340;SDS011;64931;47.562;18.920;2023-04-06T10:08:36;11.60;;;6.40;;
75340;SDS011;64931;47.562;18.920;2023-04-06T10:11:05;11.50;;;6.00;;
75340;SDS011;64931;47.562;18.920;2023-04-06T10:13:31;13.20;;;6.90;;
75340;SDS011;64931;47.562;18.920;2023-04-06T10:15:57;14.00;;;7.20;;
75340;SDS011;64931;47.562;18.920;2023-04-06T10:18:25;11.80;;;6.20;;
75340;SDS011;64931;47.562;18.920;2023-04-06T10:20:51;11.70;;;6.10;;
75340;SDS011;64931;47.562;18.920;2023-04-06T10:25:55;11.40;;;7.10;;
75340;SDS011;64931;47.562;18.920;2023-04-06T10:28:22;13.20;;;6.70;;
75340;SDS011;64931;47.562;18.920;2023-04-06T10:30:49;12.10;;;7.30;;
75340;SDS011;64931;47.562;18.920;2023-04-06T10:33:18;13.50;;;7.30;;
75340;SDS011;64931;47.562;18.920;2023-04-06T10:35:45;12.90;;;8.00;;
75340;SDS011;64931;47.562;18.920;2023-04-06T10:38:10;13.90;;;7.70;;
75340;SDS011;64931;47.562;18.920;2023-04-06T10:40:40;11.30;;;6.70;;
75340;SDS011;64931;47.562;18.920;2023-04-06T10:45:36;12.20;;;7.70;;
75340;SDS011;64931;47.562;18.920;2023-04-06T10:48:15;12.70;;;7.60;;
75340;SDS011;64931;47.562;18.920;2023-04-06T10:50:43;13.60;;;7.40;;
75340;SDS011;64931;47.562;18.920;2023-04-06T10:53:10;12.00;;;8.00;;
75340;SDS011;64931;47.562;18.920;2023-04-06T10:55:37;12.40;;;6.70;;
75340;SDS011;64931;47.562;18.920;2023-04-06T10:58:07;13.30;;;8.10;;
75340;SDS011;64931;47.562;18.920;2023-04-06T11:00:33;11.90;;;7.30;;
75340;SDS011;64931;47.562;18.920;2023-04-06T11:02:59;12.80;;;7.20;;
75340;SDS011;64931;47.562;18.920;2023-04-06T11:05:25;10.10;;;5.90;;
75340;SDS011;64931;47.562;18.920;2023-04-06T11:07:51;11.70;;;6.70;;
75340;SDS011;64931;47.562;18.920;2023-04-06T11:10:20;11.30;;;6.20;;
75340;SDS011;64931;47.562;18.920;2023-04-06T11:12:53;12.00;;;6.30;;
75340;SDS011;64931;47.562;18.920;2023-04-06T11:15:19;14.00;;;6.20;;
75340;SDS011;64931;47.562;18.920;2023-04-06T11:17:45;10.10;;;6.70;;
75340;SDS011;64931;47.562;18.920;2023-04-06T11:20:11;11.80;;;6.30;;
75340;SDS011;64931;47.562;18.920;2023-04-06T11:22:47;10.00;;;6.40;;
75340;SDS011;64931;47.562;18.920;2023-04-06T11:25:16;10.20;;;5.70;;
75340;SDS011;64931;47.562;18.920;2023-04-06T11:27:42;11.30;;;6.90;;
75340;SDS011;64931;47.562;18.920;2023-04-06T11:30:08;11.00;;;6.60;;
75340;SDS011;64931;47.562;18.920;2023-04-06T11:32:41;9.60;;;5.60;;
75340;SDS011;64931;47.562;18.920;2023-04-06T11:35:22;9.60;;;6.50;;
75340;SDS011;64931;47.562;18.920;2023-04-06T11:37:49;11.70;;;6.20;;
75340;SDS011;64931;47.562;18.920;2023-04-06T11:40:15;10.90;;;6.60;;
75340;SDS011;64931;47.562;18.920;2023-04-06T11:42:51;10.70;;;6.10;;
75340;SDS011;64931;47.562;18.920;2023-04-06T11:45:17;10.80;;;6.50;;
75340;SDS011;64931;47.562;18.920;2023-04-06T11:47:43;10.00;;;6.30;;
75340;SDS011;64931;47.562;18.920;2023-04-06T11:50:11;9.70;;;6.10;;
75340;SDS011;64931;47.562;18.920;2023-04-06T11:52:38;10.80;;;6.50;;
75340;SDS011;64931;47.562;18.920;2023-04-06T11:55:12;10.30;;;6.20;;
75340;SDS011;64931;47.562;18.920;2023-04-06T11:57:39;10.40;;;5.80;;
75340;SDS011;64931;47.562;18.920;2023-04-06T12:00:06;11.90;;;6.30;;
75340;SDS011;64931;47.562;18.920;2023-04-06T12:02:34;10.00;;;5.90;;
75340;SDS011;64931;47.562;18.920;2023-04-06T12:05:01;11.50;;;6.20;;
75340;SDS011;64931;47.562;18.920;2023-04-06T12:07:26;10.20;;;6.10;;
75340;SDS011;64931;47.562;18.920;2023-04-06T12:09:54;12.60;;;7.20;;
75340;SDS011;64931;47.562;18.920;2023-04-06T12:12:19;12.20;;;6.60;;
75340;SDS011;64931;47.562;18.920;2023-04-06T12:14:45;11.10;;;6.40;;
75340;SDS011;64931;47.562;18.920;2023-04-06T12:17:10;11.50;;;6.30;;
75340;SDS011;64931;47.562;18.920;2023-04-06T12:19:35;11.10;;;6.40;;
75340;SDS011;64931;47.562;18.920;2023-04-06T12:22:01;10.70;;;6.10;;
75340;SDS011;64931;47.562;18.920;2023-04-06T12:24:27;14.00;;;7.30;;
75340;SDS011;64931;47.562;18.920;2023-04-06T12:26:54;11.70;;;7.00;;
75340;SDS011;64931;47.562;18.920;2023-04-06T12:29:19;10.30;;;7.00;;
75340;SDS011;64931;47.562;18.920;2023-04-06T12:31:45;11.90;;;7.30;;
75340;SDS011;64931;47.562;18.920;2023-04-06T12:34:10;12.00;;;6.60;;
75340;SDS011;64931;47.562;18.920;2023-04-06T12:36:36;10.10;;;6.40;;
75340;SDS011;64931;47.562;18.920;2023-04-06T12:39:02;13.70;;;6.50;;
75340;SDS011;64931;47.562;18.920;2023-04-06T12:41:28;9.80;;;5.90;;
75340;SDS011;64931;47.562;18.920;2023-04-06T12:43:54;11.10;;;6.40;;
75340;SDS011;64931;47.562;18.920;2023-04-06T12:46:19;10.70;;;6.00;;
75340;SDS011;64931;47.562;18.920;2023-04-06T12:48:45;9.60;;;6.30;;
75340;SDS011;64931;47.562;18.920;2023-04-06T12:51:11;10.80;;;5.40;;
75340;SDS011;64931;47.562;18.920;2023-04-06T12:53:37;10.00;;;5.20;;
75340;SDS011;64931;47.562;18.920;2023-04-06T12:56:09;9.50;;;6.20;;
75340;SDS011;64931;47.562;18.920;2023-04-06T12:58:37;11.00;;;5.90;;
75340;SDS011;64931;47.562;18.920;2023-04-06T13:01:05;10.30;;;5.60;;
75340;SDS011;64931;47.562;18.920;2023-04-06T13:03:31;9.90;;;5.90;;
75340;SDS011;64931;47.562;18.920;2023-04-06T13:05:58;10.60;;;6.60;;
75340;SDS011;64931;47.562;18.920;2023-04-06T13:08:25;12.40;;;5.90;;
75340;SDS011;64931;47.562;18.920;2023-04-06T13:10:51;10.50;;;5.30;;
75340;SDS011;64931;47.562;18.920;2023-04-06T13:13:18;10.00;;;6.60;;
75340;SDS011;64931;47.562;18.920;2023-04-06T13:15:50;9.00;;;5.30;;
75340;SDS011;64931;47.562;18.920;2023-04-06T13:18:17;8.40;;;5.30;;
75340;SDS011;64931;47.562;18.920;2023-04-06T13:20:42;8.20;;;5.00;;
75340;SDS011;64931;47.562;18.920;2023-04-06T13:23:08;9.40;;;5.20;;
75340;SDS011;64931;47.562;18.920;2023-04-06T13:25:33;9.60;;;6.00;;
75340;SDS011;64931;47.562;18.920;2023-04-06T13:27:59;8.70;;;5.70;;
75340;SDS011;64931;47.562;18.920;2023-04-06T13:30:25;11.70;;;6.30;;
75340;SDS011;64931;47.562;18.920;2023-04-06T13:32:50;9.30;;;5.70;;
75340;SDS011;64931;47.562;18.920;2023-04-06T13:35:16;11.90;;;6.10;;
75340;SDS011;64931;47.562;18.920;2023-04-06T13:37:43;11.00;;;5.20;;
75340;SDS011;64931;47.562;18.920;2023-04-06T13:40:09;9.10;;;5.20;;
75340;SDS011;64931;47.562;18.920;2023-04-06T13:42:35;9.50;;;5.80;;
75340;SDS011;64931;47.562;18.920;2023-04-06T13:45:00;9.20;;;5.90;;
75340;SDS011;64931;47.562;18.920;2023-04-06T13:47:26;10.20;;;5.00;;
75340;SDS011;64931;47.562;18.920;2023-04-06T13:49:52;10.20;;;5.70;;
75340;SDS011;64931;47.562;18.920;2023-04-06T13:52:18;9.60;;;5.70;;
75340;SDS011;64931;47.562;18.920;2023-04-06T13:54:45;11.00;;;5.70;;
75340;SDS011;64931;47.562;18.920;2023-04-06T13:57:11;11.50;;;5.70;;
75340;SDS011;64931;47.562;18.920;2023-04-06T13:59:37;12.10;;;6.90;;
75340;SDS011;64931;47.562;18.920;2023-04-06T14:02:03;9.90;;;5.50;;
75340;SDS011;64931;47.562;18.920;2023-04-06T14:04:30;9.00;;;5.80;;
75340;SDS011;64931;47.562;18.920;2023-04-06T14:06:56;8.20;;;5.00;;
75340;SDS011;64931;47.562;18.920;2023-04-06T14:09:22;10.20;;;5.50;;
75340;SDS011;64931;47.562;18.920;2023-04-06T14:11:48;12.30;;;5.80;;
75340;SDS011;64931;47.562;18.920;2023-04-06T14:14:14;10.00;;;6.10;;
75340;SDS011;64931;47.562;18.920;2023-04-06T14:16:39;9.80;;;6.80;;
75340;SDS011;64931;47.562;18.920;2023-04-06T14:19:05;8.10;;;5.10;;
75340;SDS011;64931;47.562;18.920;2023-04-06T14:21:31;8.90;;;5.70;;
75340;SDS011;64931;47.562;18.920;2023-04-06T14:23:56;9.50;;;6.00;;
75340;SDS011;64931;47.562;18.920;2023-04-06T14:26:22;9.00;;;5.10;;
75340;SDS011;64931;47.562;18.920;2023-04-06T14:28:49;11.80;;;5.60;;
75340;SDS011;64931;47.562;18.920;2023-04-06T14:31:15;10.30;;;5.40;;